DCM215 KLAX-KPHX
Flight info
| Callsign | DCM215 |
|---|---|
| Flight time | 0h 57m |
| Altitude | 39000 |
| Route | DOTSS2 CNERY BLH HYDRR1 |
| Aircraft | A346/H-SDE2E3FGHIJ3J4J5M1RWXY/LB1D1 |
Departure
| Time | 2026-05-07 15:57 |
|---|---|
| Airport | Los Angeles International Airport (KLAX) |
Arrival
| Time | 2026-05-07 16:55 |
|---|---|
| Airport | Phoenix Sky Harbor International Airport (KPHX) |
| Time | Latitude | Longitude | Altitude | Speed | Heading |
|---|---|---|---|---|---|
| 2026-05-07 15:34 | 33.94514 | -118.43029 | 104 ft | 0 kts | 83° |
| 2026-05-07 15:45 | 33.94511 | -118.43053 | 106 ft | 4 kts | 83° |
| 2026-05-07 15:45 | 33.94508 | -118.43080 | 107 ft | 4 kts | 71° |
| 2026-05-07 15:46 | 33.94480 | -118.43108 | 104 ft | 4 kts | 1° |
| 2026-05-07 15:46 | 33.94454 | -118.43105 | 104 ft | 4 kts | 352° |
| 2026-05-07 15:46 | 33.94438 | -118.43103 | 104 ft | 1 kts | 353° |
| 2026-05-07 15:47 | 33.94436 | -118.43102 | 104 ft | 0 kts | 353° |
| 2026-05-07 15:47 | 33.94436 | -118.43103 | 104 ft | 0 kts | 353° |
| 2026-05-07 15:49 | 33.94438 | -118.43103 | 104 ft | 1 kts | 353° |
| 2026-05-07 15:49 | 33.94457 | -118.43106 | 104 ft | 4 kts | 353° |
| 2026-05-07 15:50 | 33.94498 | -118.43111 | 105 ft | 7 kts | 353° |
| 2026-05-07 15:50 | 33.94555 | -118.43118 | 106 ft | 8 kts | 5° |
| 2026-05-07 15:50 | 33.94596 | -118.43070 | 109 ft | 10 kts | 70° |
| 2026-05-07 15:50 | 33.94609 | -118.42978 | 109 ft | 13 kts | 84° |
| 2026-05-07 15:51 | 33.94618 | -118.42870 | 109 ft | 14 kts | 83° |
| 2026-05-07 15:51 | 33.94631 | -118.42734 | 109 ft | 18 kts | 82° |
| 2026-05-07 15:51 | 33.94647 | -118.42591 | 107 ft | 11 kts | 83° |
| 2026-05-07 15:51 | 33.94658 | -118.42488 | 109 ft | 14 kts | 83° |
| 2026-05-07 15:52 | 33.94672 | -118.42352 | 107 ft | 18 kts | 83° |
| 2026-05-07 15:52 | 33.94688 | -118.42186 | 109 ft | 17 kts | 83° |
| 2026-05-07 15:52 | 33.94704 | -118.42034 | 108 ft | 20 kts | 83° |
| 2026-05-07 15:52 | 33.94721 | -118.41863 | 106 ft | 13 kts | 83° |
| 2026-05-07 15:53 | 33.94732 | -118.41743 | 107 ft | 16 kts | 83° |
| 2026-05-07 15:53 | 33.94747 | -118.41593 | 109 ft | 20 kts | 83° |
| 2026-05-07 15:53 | 33.94768 | -118.41418 | 109 ft | 22 kts | 77° |
| 2026-05-07 15:53 | 33.94795 | -118.41249 | 109 ft | 20 kts | 82° |
| 2026-05-07 15:54 | 33.94812 | -118.41102 | 109 ft | 19 kts | 82° |
| 2026-05-07 15:54 | 33.94830 | -118.40932 | 111 ft | 22 kts | 83° |
| 2026-05-07 15:54 | 33.94848 | -118.40767 | 110 ft | 21 kts | 83° |
| 2026-05-07 15:54 | 33.94866 | -118.40587 | 109 ft | 19 kts | 83° |
| 2026-05-07 15:55 | 33.94879 | -118.40453 | 110 ft | 18 kts | 83° |
| 2026-05-07 15:55 | 33.94892 | -118.40326 | 108 ft | 13 kts | 83° |
| 2026-05-07 15:55 | 33.94904 | -118.40199 | 109 ft | 17 kts | 83° |
| 2026-05-07 15:55 | 33.94920 | -118.40044 | 107 ft | 14 kts | 83° |
| 2026-05-07 15:56 | 33.94944 | -118.39947 | 110 ft | 10 kts | 51° |
| 2026-05-07 15:56 | 33.94993 | -118.39918 | 113 ft | 6 kts | 5° |
| 2026-05-07 15:56 | 33.95019 | -118.39926 | 115 ft | 3 kts | 327° |
| 2026-05-07 15:56 | 33.95031 | -118.39983 | 116 ft | 20 kts | 272° |
| 2026-05-07 15:57 | 33.94993 | -118.40464 | 116 ft | 95 kts | 263° |
| 2026-05-07 15:57 | 33.94879 | -118.41549 | 113 ft | 158 kts | 263° |
| 2026-05-07 15:57 | 33.94727 | -118.43008 | 398 ft | 184 kts | 262° |
| 2026-05-07 15:57 | 33.94563 | -118.44523 | 1284 ft | 181 kts | 262° |
| 2026-05-07 15:58 | 33.94397 | -118.46036 | 2090 ft | 184 kts | 264° |
| 2026-05-07 15:58 | 33.94308 | -118.47627 | 2605 ft | 198 kts | 269° |
| 2026-05-07 15:58 | 33.94255 | -118.49362 | 3106 ft | 215 kts | 267° |
| 2026-05-07 15:58 | 33.93778 | -118.51128 | 3511 ft | 237 kts | 232° |
| 2026-05-07 15:59 | 33.92362 | -118.52256 | 3939 ft | 258 kts | 194° |
| 2026-05-07 15:59 | 33.90519 | -118.52329 | 4553 ft | 272 kts | 174° |
| 2026-05-07 15:59 | 33.88612 | -118.52086 | 5345 ft | 278 kts | 174° |
| 2026-05-07 15:59 | 33.86676 | -118.51905 | 6268 ft | 280 kts | 176° |
| 2026-05-07 16:00 | 33.84721 | -118.51821 | 7200 ft | 282 kts | 178° |
| 2026-05-07 16:00 | 33.82746 | -118.51803 | 8125 ft | 286 kts | 179° |
| 2026-05-07 16:00 | 33.80741 | -118.51825 | 9061 ft | 290 kts | 179° |
| 2026-05-07 16:00 | 33.78729 | -118.51865 | 10035 ft | 295 kts | 179° |
| 2026-05-07 16:01 | 33.76651 | -118.51909 | 10828 ft | 306 kts | 179° |
| 2026-05-07 16:01 | 33.74463 | -118.51952 | 11424 ft | 323 kts | 178° |
| 2026-05-07 16:01 | 33.72196 | -118.51550 | 12031 ft | 337 kts | 159° |
| 2026-05-07 16:01 | 33.70114 | -118.50184 | 12570 ft | 351 kts | 139° |
| 2026-05-07 16:02 | 33.68506 | -118.47917 | 13085 ft | 365 kts | 117° |
| 2026-05-07 16:02 | 33.67545 | -118.45045 | 13801 ft | 373 kts | 107° |
| 2026-05-07 16:02 | 33.66706 | -118.42073 | 14649 ft | 378 kts | 106° |
| 2026-05-07 16:02 | 33.65841 | -118.39049 | 15531 ft | 383 kts | 107° |
| 2026-05-07 16:03 | 33.65066 | -118.35965 | 16386 ft | 386 kts | 101° |
| 2026-05-07 16:03 | 33.64589 | -118.32774 | 17243 ft | 389 kts | 94° |
| 2026-05-07 16:03 | 33.64427 | -118.29520 | 18103 ft | 392 kts | 88° |
| 2026-05-07 16:03 | 33.64415 | -118.26263 | 18879 ft | 396 kts | 87° |
| 2026-05-07 16:04 | 33.64427 | -118.22934 | 19610 ft | 400 kts | 87° |
| 2026-05-07 16:04 | 33.64440 | -118.19568 | 20321 ft | 405 kts | 87° |
| 2026-05-07 16:04 | 33.64449 | -118.16147 | 21046 ft | 410 kts | 87° |
| 2026-05-07 16:04 | 33.64454 | -118.12698 | 21731 ft | 415 kts | 87° |
| 2026-05-07 16:05 | 33.64454 | -118.09204 | 22450 ft | 420 kts | 87° |
| 2026-05-07 16:05 | 33.64453 | -118.05677 | 23145 ft | 425 kts | 87° |
| 2026-05-07 16:05 | 33.64450 | -118.02096 | 23844 ft | 430 kts | 87° |
| 2026-05-07 16:05 | 33.64446 | -117.98485 | 24418 ft | 435 kts | 87° |
| 2026-05-07 16:06 | 33.64440 | -117.94837 | 25006 ft | 439 kts | 87° |
| 2026-05-07 16:06 | 33.64433 | -117.91201 | 25593 ft | 442 kts | 87° |
| 2026-05-07 16:06 | 33.64424 | -117.87480 | 26168 ft | 446 kts | 87° |
| 2026-05-07 16:06 | 33.64376 | -117.83730 | 26742 ft | 452 kts | 90° |
| 2026-05-07 16:07 | 33.64084 | -117.79941 | 27317 ft | 457 kts | 95° |
| 2026-05-07 16:07 | 33.63511 | -117.76154 | 27887 ft | 463 kts | 100° |
| 2026-05-07 16:07 | 33.62675 | -117.72384 | 28440 ft | 468 kts | 103° |
| 2026-05-07 16:07 | 33.61752 | -117.68613 | 29001 ft | 473 kts | 104° |
| 2026-05-07 16:08 | 33.60804 | -117.64817 | 29559 ft | 476 kts | 104° |
| 2026-05-07 16:08 | 33.59851 | -117.61005 | 30264 ft | 475 kts | 104° |
| 2026-05-07 16:08 | 33.58903 | -117.57211 | 30984 ft | 473 kts | 103° |
| 2026-05-07 16:08 | 33.57962 | -117.53436 | 31665 ft | 472 kts | 103° |
| 2026-05-07 16:09 | 33.57024 | -117.49664 | 32301 ft | 471 kts | 103° |
| 2026-05-07 16:09 | 33.56088 | -117.45890 | 32897 ft | 471 kts | 103° |
| 2026-05-07 16:09 | 33.55152 | -117.42116 | 33506 ft | 471 kts | 102° |
| 2026-05-07 16:09 | 33.54215 | -117.38345 | 34102 ft | 471 kts | 102° |
| 2026-05-07 16:10 | 33.53278 | -117.34575 | 34601 ft | 471 kts | 102° |
| 2026-05-07 16:10 | 33.52371 | -117.30848 | 35101 ft | 470 kts | 101° |
| 2026-05-07 16:10 | 33.51598 | -117.27046 | 35619 ft | 467 kts | 98° |
| 2026-05-07 16:10 | 33.51002 | -117.23221 | 36112 ft | 465 kts | 94° |
| 2026-05-07 16:11 | 33.50589 | -117.19382 | 36565 ft | 462 kts | 91° |
| 2026-05-07 16:11 | 33.50356 | -117.15536 | 37000 ft | 461 kts | 88° |
| 2026-05-07 16:11 | 33.50273 | -117.11699 | 37060 ft | 459 kts | 86° |
| 2026-05-07 16:12 | 33.50184 | -117.03976 | 37074 ft | 465 kts | 86° |
| 2026-05-07 16:12 | 33.50086 | -116.96130 | 37060 ft | 466 kts | 86° |
| 2026-05-07 16:13 | 33.49976 | -116.88355 | 37055 ft | 466 kts | 87° |
| 2026-05-07 16:13 | 33.49858 | -116.80629 | 37041 ft | 466 kts | 87° |
| 2026-05-07 16:14 | 33.49734 | -116.72852 | 37029 ft | 465 kts | 87° |
| 2026-05-07 16:14 | 33.49605 | -116.65084 | 37011 ft | 465 kts | 87° |
| 2026-05-07 16:15 | 33.49472 | -116.57312 | 37010 ft | 465 kts | 87° |
| 2026-05-07 16:15 | 33.49334 | -116.49547 | 36999 ft | 465 kts | 87° |
| 2026-05-07 16:16 | 33.49191 | -116.41768 | 36996 ft | 465 kts | 87° |
| 2026-05-07 16:16 | 33.49076 | -116.34045 | 36972 ft | 465 kts | 87° |
| 2026-05-07 16:17 | 33.48965 | -116.26288 | 36982 ft | 465 kts | 87° |
| 2026-05-07 16:17 | 33.48843 | -116.18531 | 36981 ft | 464 kts | 87° |
| 2026-05-07 16:18 | 33.48861 | -116.10789 | 36982 ft | 462 kts | 83° |
| 2026-05-07 16:18 | 33.49542 | -116.03148 | 36982 ft | 459 kts | 77° |
| 2026-05-07 16:19 | 33.50933 | -115.95690 | 36979 ft | 457 kts | 70° |
| 2026-05-07 16:19 | 33.52911 | -115.88518 | 36978 ft | 455 kts | 67° |
| 2026-05-07 16:20 | 33.55022 | -115.81345 | 36975 ft | 456 kts | 67° |
| 2026-05-07 16:20 | 33.57125 | -115.74165 | 36979 ft | 456 kts | 67° |
| 2026-05-07 16:21 | 33.59218 | -115.66984 | 36981 ft | 455 kts | 68° |
| 2026-05-07 16:21 | 33.61309 | -115.59783 | 36984 ft | 456 kts | 68° |
| 2026-05-07 16:22 | 33.63181 | -115.52488 | 36982 ft | 458 kts | 73° |
| 2026-05-07 16:22 | 33.64376 | -115.44946 | 36986 ft | 461 kts | 79° |
| 2026-05-07 16:23 | 33.64850 | -115.37299 | 36979 ft | 463 kts | 86° |
| 2026-05-07 16:23 | 33.64589 | -115.29547 | 36976 ft | 465 kts | 92° |
| 2026-05-07 16:24 | 33.63578 | -115.21838 | 36981 ft | 468 kts | 99° |
| 2026-05-07 16:24 | 33.61968 | -115.14253 | 36982 ft | 468 kts | 101° |
| 2026-05-07 16:25 | 33.60744 | -115.06601 | 36989 ft | 465 kts | 95° |
| 2026-05-07 16:25 | 33.60246 | -114.98855 | 37002 ft | 463 kts | 89° |
| 2026-05-07 16:26 | 33.60028 | -114.91130 | 37002 ft | 463 kts | 89° |
| 2026-05-07 16:26 | 33.59919 | -114.87284 | 36848 ft | 459 kts | 89° |
| 2026-05-07 16:26 | 33.59807 | -114.83444 | 36010 ft | 463 kts | 89° |
| 2026-05-07 16:26 | 33.59706 | -114.80859 | 35216 ft | 470 kts | 91° |
| 2026-05-07 16:27 | 33.59249 | -114.75602 | 34055 ft | 473 kts | 95° |
| 2026-05-07 16:27 | 33.58695 | -114.71731 | 33323 ft | 469 kts | 98° |
| 2026-05-07 16:27 | 33.57998 | -114.67958 | 32709 ft | 467 kts | 99° |
| 2026-05-07 16:27 | 33.57257 | -114.64112 | 31975 ft | 465 kts | 99° |
| 2026-05-07 16:28 | 33.56528 | -114.60367 | 31355 ft | 456 kts | 99° |
| 2026-05-07 16:28 | 33.55819 | -114.56741 | 30770 ft | 449 kts | 99° |
| 2026-05-07 16:28 | 33.55109 | -114.53100 | 30171 ft | 448 kts | 99° |
| 2026-05-07 16:28 | 33.54397 | -114.49448 | 29426 ft | 449 kts | 99° |
| 2026-05-07 16:29 | 33.53685 | -114.45792 | 28712 ft | 449 kts | 99° |
| 2026-05-07 16:29 | 33.52974 | -114.42158 | 28181 ft | 446 kts | 99° |
| 2026-05-07 16:29 | 33.52261 | -114.38527 | 27771 ft | 444 kts | 99° |
| 2026-05-07 16:29 | 33.51555 | -114.34937 | 27344 ft | 440 kts | 99° |
| 2026-05-07 16:30 | 33.50853 | -114.31371 | 26918 ft | 437 kts | 99° |
| 2026-05-07 16:30 | 33.50156 | -114.27839 | 26481 ft | 434 kts | 99° |
| 2026-05-07 16:30 | 33.49462 | -114.24327 | 26035 ft | 430 kts | 99° |
| 2026-05-07 16:30 | 33.48773 | -114.20840 | 25605 ft | 427 kts | 99° |
| 2026-05-07 16:31 | 33.48090 | -114.17391 | 25304 ft | 419 kts | 99° |
| 2026-05-07 16:31 | 33.47424 | -114.14051 | 25208 ft | 405 kts | 99° |
| 2026-05-07 16:31 | 33.46780 | -114.10820 | 25082 ft | 392 kts | 99° |
| 2026-05-07 16:31 | 33.46163 | -114.07723 | 24976 ft | 382 kts | 99° |
| 2026-05-07 16:32 | 33.45542 | -114.04597 | 24979 ft | 388 kts | 99° |
| 2026-05-07 16:32 | 33.44912 | -114.01439 | 24986 ft | 390 kts | 99° |
| 2026-05-07 16:32 | 33.44276 | -113.98269 | 24984 ft | 391 kts | 99° |
| 2026-05-07 16:32 | 33.43640 | -113.95110 | 24992 ft | 391 kts | 99° |
| 2026-05-07 16:33 | 33.43003 | -113.91940 | 24987 ft | 390 kts | 99° |
| 2026-05-07 16:33 | 33.42369 | -113.88777 | 24987 ft | 390 kts | 99° |
| 2026-05-07 16:33 | 33.41732 | -113.85600 | 24966 ft | 390 kts | 99° |
| 2026-05-07 16:33 | 33.41097 | -113.82438 | 24640 ft | 391 kts | 99° |
| 2026-05-07 16:34 | 33.40459 | -113.79271 | 24198 ft | 388 kts | 99° |
| 2026-05-07 16:34 | 33.39826 | -113.76136 | 23799 ft | 385 kts | 99° |
| 2026-05-07 16:34 | 33.39208 | -113.73076 | 23386 ft | 381 kts | 99° |
| 2026-05-07 16:34 | 33.38587 | -113.70007 | 22965 ft | 376 kts | 99° |
| 2026-05-07 16:35 | 33.37973 | -113.66976 | 22572 ft | 371 kts | 99° |
| 2026-05-07 16:35 | 33.37365 | -113.63978 | 22185 ft | 367 kts | 100° |
| 2026-05-07 16:35 | 33.36764 | -113.61024 | 21805 ft | 363 kts | 100° |
| 2026-05-07 16:35 | 33.36169 | -113.58095 | 21424 ft | 360 kts | 100° |
| 2026-05-07 16:36 | 33.35578 | -113.55197 | 21044 ft | 356 kts | 100° |
| 2026-05-07 16:36 | 33.34991 | -113.52322 | 20653 ft | 354 kts | 100° |
| 2026-05-07 16:36 | 33.34416 | -113.49508 | 20281 ft | 351 kts | 100° |
| 2026-05-07 16:36 | 33.33838 | -113.46675 | 19907 ft | 348 kts | 100° |
| 2026-05-07 16:37 | 33.33330 | -113.43850 | 19519 ft | 346 kts | 98° |
| 2026-05-07 16:37 | 33.32842 | -113.41028 | 19143 ft | 344 kts | 98° |
| 2026-05-07 16:37 | 33.32523 | -113.39174 | 18894 ft | 343 kts | 99° |
| 2026-05-07 16:37 | 33.32041 | -113.36372 | 18509 ft | 341 kts | 99° |
| 2026-05-07 16:38 | 33.31561 | -113.33590 | 18110 ft | 340 kts | 99° |
| 2026-05-07 16:38 | 33.31081 | -113.30820 | 17696 ft | 339 kts | 99° |
| 2026-05-07 16:38 | 33.30602 | -113.28062 | 17307 ft | 337 kts | 99° |
| 2026-05-07 16:38 | 33.30126 | -113.25325 | 16935 ft | 335 kts | 99° |
| 2026-05-07 16:39 | 33.29668 | -113.22600 | 16565 ft | 332 kts | 97° |
| 2026-05-07 16:39 | 33.29279 | -113.19915 | 16200 ft | 330 kts | 97° |
| 2026-05-07 16:39 | 33.28887 | -113.17181 | 15836 ft | 328 kts | 97° |
| 2026-05-07 16:39 | 33.28508 | -113.14531 | 15487 ft | 327 kts | 97° |
| 2026-05-07 16:40 | 33.28123 | -113.11854 | 15133 ft | 326 kts | 97° |
| 2026-05-07 16:40 | 33.27752 | -113.09199 | 14969 ft | 318 kts | 96° |
| 2026-05-07 16:40 | 33.27530 | -113.06601 | 14971 ft | 310 kts | 91° |
| 2026-05-07 16:40 | 33.27486 | -113.04028 | 14659 ft | 311 kts | 87° |
| 2026-05-07 16:41 | 33.27544 | -113.01434 | 14255 ft | 312 kts | 86° |
| 2026-05-07 16:41 | 33.27616 | -112.98834 | 13873 ft | 312 kts | 86° |
| 2026-05-07 16:41 | 33.27686 | -112.96239 | 13477 ft | 311 kts | 86° |
| 2026-05-07 16:41 | 33.27754 | -112.93656 | 13112 ft | 309 kts | 86° |
| 2026-05-07 16:42 | 33.27818 | -112.91098 | 12829 ft | 304 kts | 86° |
| 2026-05-07 16:42 | 33.27879 | -112.88600 | 12569 ft | 297 kts | 86° |
| 2026-05-07 16:42 | 33.27939 | -112.86148 | 12331 ft | 291 kts | 86° |
| 2026-05-07 16:42 | 33.28022 | -112.83750 | 12074 ft | 286 kts | 82° |
| 2026-05-07 16:43 | 33.28388 | -112.81471 | 11820 ft | 280 kts | 72° |
| 2026-05-07 16:43 | 33.29075 | -112.79299 | 11517 ft | 277 kts | 65° |
| 2026-05-07 16:43 | 33.29859 | -112.77201 | 11209 ft | 275 kts | 64° |
| 2026-05-07 16:43 | 33.30651 | -112.75122 | 10920 ft | 273 kts | 64° |
| 2026-05-07 16:44 | 33.31432 | -112.73064 | 10638 ft | 270 kts | 65° |
| 2026-05-07 16:44 | 33.32190 | -112.71050 | 10540 ft | 258 kts | 65° |
| 2026-05-07 16:44 | 33.32913 | -112.69123 | 10506 ft | 249 kts | 65° |
| 2026-05-07 16:44 | 33.33627 | -112.67244 | 10285 ft | 248 kts | 64° |
| 2026-05-07 16:45 | 33.34344 | -112.65370 | 10019 ft | 247 kts | 64° |
| 2026-05-07 16:45 | 33.35048 | -112.63534 | 9721 ft | 245 kts | 64° |
| 2026-05-07 16:45 | 33.35755 | -112.61688 | 9437 ft | 242 kts | 64° |
| 2026-05-07 16:45 | 33.36453 | -112.59860 | 9156 ft | 241 kts | 64° |
| 2026-05-07 16:46 | 33.37147 | -112.58043 | 8900 ft | 239 kts | 64° |
| 2026-05-07 16:46 | 33.37835 | -112.56238 | 8617 ft | 236 kts | 65° |
| 2026-05-07 16:46 | 33.38513 | -112.54456 | 8365 ft | 234 kts | 65° |
| 2026-05-07 16:46 | 33.39186 | -112.52690 | 8167 ft | 231 kts | 65° |
| 2026-05-07 16:47 | 33.39852 | -112.50938 | 8137 ft | 231 kts | 65° |
| 2026-05-07 16:47 | 33.40511 | -112.49173 | 8038 ft | 232 kts | 66° |
| 2026-05-07 16:47 | 33.41140 | -112.47393 | 7742 ft | 231 kts | 66° |
| 2026-05-07 16:47 | 33.41759 | -112.45616 | 7477 ft | 230 kts | 67° |
| 2026-05-07 16:48 | 33.42334 | -112.43827 | 7217 ft | 229 kts | 69° |
| 2026-05-07 16:48 | 33.42814 | -112.42003 | 6964 ft | 229 kts | 77° |
| 2026-05-07 16:48 | 33.43033 | -112.40112 | 6721 ft | 229 kts | 85° |
| 2026-05-07 16:48 | 33.43124 | -112.38206 | 6496 ft | 229 kts | 87° |
| 2026-05-07 16:49 | 33.43169 | -112.36323 | 6257 ft | 229 kts | 88° |
| 2026-05-07 16:49 | 33.43188 | -112.34426 | 6028 ft | 225 kts | 89° |
| 2026-05-07 16:49 | 33.43190 | -112.32566 | 5858 ft | 218 kts | 89° |
| 2026-05-07 16:49 | 33.43185 | -112.30769 | 5622 ft | 212 kts | 89° |
| 2026-05-07 16:50 | 33.43177 | -112.29013 | 5339 ft | 209 kts | 89° |
| 2026-05-07 16:50 | 33.43167 | -112.27280 | 5061 ft | 205 kts | 89° |
| 2026-05-07 16:50 | 33.43158 | -112.25596 | 4748 ft | 198 kts | 89° |
| 2026-05-07 16:50 | 33.43151 | -112.23977 | 4456 ft | 192 kts | 89° |
| 2026-05-07 16:51 | 33.43145 | -112.22418 | 4212 ft | 181 kts | 89° |
| 2026-05-07 16:51 | 33.43139 | -112.20948 | 3973 ft | 171 kts | 89° |
| 2026-05-07 16:51 | 33.43135 | -112.19574 | 3728 ft | 159 kts | 89° |
| 2026-05-07 16:51 | 33.43131 | -112.18275 | 3544 ft | 157 kts | 89° |
| 2026-05-07 16:52 | 33.43128 | -112.16966 | 3362 ft | 157 kts | 90° |
| 2026-05-07 16:52 | 33.43125 | -112.15654 | 3175 ft | 157 kts | 90° |
| 2026-05-07 16:52 | 33.43122 | -112.14348 | 2983 ft | 157 kts | 90° |
| 2026-05-07 16:52 | 33.43119 | -112.13037 | 2782 ft | 157 kts | 90° |
| 2026-05-07 16:53 | 33.43117 | -112.11734 | 2576 ft | 157 kts | 90° |
| 2026-05-07 16:53 | 33.43115 | -112.10427 | 2369 ft | 156 kts | 90° |
| 2026-05-07 16:53 | 33.43113 | -112.09125 | 2153 ft | 156 kts | 90° |
| 2026-05-07 16:53 | 33.43108 | -112.07827 | 1984 ft | 155 kts | 90° |
| 2026-05-07 16:54 | 33.43108 | -112.06538 | 1792 ft | 154 kts | 90° |
| 2026-05-07 16:54 | 33.43113 | -112.05259 | 1567 ft | 153 kts | 90° |
| 2026-05-07 16:54 | 33.43110 | -112.03988 | 1377 ft | 152 kts | 91° |
| 2026-05-07 16:54 | 33.43109 | -112.02719 | 1184 ft | 151 kts | 91° |
| 2026-05-07 16:55 | 33.43103 | -112.01539 | 1136 ft | 122 kts | 90° |
| 2026-05-07 16:55 | 33.43104 | -112.00790 | 1133 ft | 63 kts | 90° |
| 2026-05-07 16:55 | 33.43104 | -112.00346 | 1133 ft | 39 kts | 90° |
| 2026-05-07 16:55 | 33.43106 | -112.00103 | 1133 ft | 22 kts | 84° |
| 2026-05-07 16:56 | 33.43143 | -111.99986 | 1137 ft | 11 kts | 42° |
| 2026-05-07 16:56 | 33.43199 | -112.00009 | 1137 ft | 10 kts | 286° |
| 2026-05-07 16:56 | 33.43213 | -112.00219 | 1136 ft | 16 kts | 270° |
| 2026-05-07 16:57 | 33.43215 | -112.00368 | 1136 ft | 19 kts | 270° |
| 2026-05-07 16:57 | 33.43215 | -112.00541 | 1137 ft | 22 kts | 270° |
| 2026-05-07 16:57 | 33.43214 | -112.00739 | 1137 ft | 25 kts | 270° |
| 2026-05-07 16:57 | 33.43214 | -112.00919 | 1136 ft | 22 kts | 270° |
| 2026-05-07 16:58 | 33.43215 | -112.01110 | 1136 ft | 24 kts | 270° |
| 2026-05-07 16:58 | 33.43215 | -112.01319 | 1135 ft | 26 kts | 270° |
| 2026-05-07 16:58 | 33.43215 | -112.01447 | 1135 ft | 8 kts | 274° |
| 2026-05-07 16:58 | 33.43249 | -112.01503 | 1135 ft | 10 kts | 330° |
| 2026-05-07 16:59 | 33.43288 | -112.01577 | 1137 ft | 12 kts | 276° |
| 2026-05-07 16:59 | 33.43290 | -112.01688 | 1136 ft | 8 kts | 285° |
| 2026-05-07 16:59 | 33.43340 | -112.01742 | 1134 ft | 12 kts | 323° |
| 2026-05-07 16:59 | 33.43402 | -112.01800 | 1137 ft | 8 kts | 316° |
| 2026-05-07 17:00 | 33.43434 | -112.01865 | 1135 ft | 11 kts | 287° |
| 2026-05-07 17:00 | 33.43437 | -112.01925 | 1136 ft | 3 kts | 253° |
| 2026-05-07 17:00 | 33.43415 | -112.01945 | 1137 ft | 6 kts | 204° |
| 2026-05-07 17:00 | 33.43394 | -112.01951 | 1137 ft | 0 kts | 190° |
| 2026-05-07 17:01 | 33.43382 | -112.01953 | 1137 ft | 3 kts | 181° |
| 2026-05-07 17:01 | 33.43375 | -112.01953 | 1137 ft | 0 kts | 181° |